FAOR

Olifants River Bridge Landing Strip Airport

Olifants River Bridge, South Africa
METAR FAOR 172100Z 07009KT CAVOK 18/14 Q1022 NOSIG
Observed Flight Rules
Feb-17 @ 21:00 UTC (33 minutes ago) Visual Flight Rules
Wind Visibility Clouds
70° at 9 knots 10,000+ meters
  • Clear skies
Temperatures Readings
Current 18°C / 64°F
Dewpoint 14°C / 57°F
Humidity 78%
Altimeter 30.18" Hg
Pressure 1022 hPa
Elevation 1700
METAR FAOR 172100Z 07009KT CAVOK 18/14 Q1022 NOSIG
Observed Flight Rules
Feb-17 @ 21:00 UTC
(33 minutes ago)
VFR
Wind Visibility
70° at 9 knots 10,000+ meters
Clouds
  • Clear skies
Temperature Dewpoint
18°C / 64°F 14°C / 57°F
Humidity Altimeter Pressure
78% 30.18" Hg 1022 hPa